sensor_id;sensor_type;location;lat;lon;timestamp;P1;durP1;ratioP1;P2;durP2;ratioP2
72924;SDS011;61070;50.794;7.054;2022-10-31T00:00:59;16.35;;;8.35;;
72924;SDS011;61070;50.794;7.054;2022-10-31T00:03:25;16.35;;;8.68;;
72924;SDS011;61070;50.794;7.054;2022-10-31T00:05:51;20.88;;;8.00;;
72924;SDS011;61070;50.794;7.054;2022-10-31T00:08:17;21.88;;;8.75;;
72924;SDS011;61070;50.794;7.054;2022-10-31T00:10:44;18.40;;;8.55;;
72924;SDS011;61070;50.794;7.054;2022-10-31T00:13:10;22.13;;;8.70;;
72924;SDS011;61070;50.794;7.054;2022-10-31T00:15:37;18.25;;;8.40;;
72924;SDS011;61070;50.794;7.054;2022-10-31T00:18:03;19.02;;;8.43;;
72924;SDS011;61070;50.794;7.054;2022-10-31T00:20:30;16.70;;;9.20;;
72924;SDS011;61070;50.794;7.054;2022-10-31T00:22:59;21.75;;;8.60;;
72924;SDS011;61070;50.794;7.054;2022-10-31T00:25:25;24.27;;;8.73;;
72924;SDS011;61070;50.794;7.054;2022-10-31T00:27:51;20.42;;;8.13;;
72924;SDS011;61070;50.794;7.054;2022-10-31T00:30:16;16.67;;;8.38;;
72924;SDS011;61070;50.794;7.054;2022-10-31T00:32:42;18.05;;;8.40;;
72924;SDS011;61070;50.794;7.054;2022-10-31T00:35:07;17.05;;;8.23;;
72924;SDS011;61070;50.794;7.054;2022-10-31T00:37:32;21.92;;;8.65;;
72924;SDS011;61070;50.794;7.054;2022-10-31T00:39:58;18.10;;;8.18;;
72924;SDS011;61070;50.794;7.054;2022-10-31T00:42:23;21.15;;;8.95;;
72924;SDS011;61070;50.794;7.054;2022-10-31T00:44:48;17.73;;;7.97;;
72924;SDS011;61070;50.794;7.054;2022-10-31T00:47:13;16.45;;;8.23;;
72924;SDS011;61070;50.794;7.054;2022-10-31T00:49:39;20.65;;;8.45;;
72924;SDS011;61070;50.794;7.054;2022-10-31T00:52:04;16.70;;;7.57;;
72924;SDS011;61070;50.794;7.054;2022-10-31T00:54:29;21.10;;;8.50;;
72924;SDS011;61070;50.794;7.054;2022-10-31T00:56:55;16.00;;;8.52;;
72924;SDS011;61070;50.794;7.054;2022-10-31T00:59:21;17.27;;;7.85;;
72924;SDS011;61070;50.794;7.054;2022-10-31T01:01:47;20.83;;;8.88;;
72924;SDS011;61070;50.794;7.054;2022-10-31T01:04:12;19.95;;;8.68;;
72924;SDS011;61070;50.794;7.054;2022-10-31T01:06:37;18.50;;;8.27;;
72924;SDS011;61070;50.794;7.054;2022-10-31T01:09:02;19.63;;;7.60;;
72924;SDS011;61070;50.794;7.054;2022-10-31T01:11:28;18.77;;;8.35;;
72924;SDS011;61070;50.794;7.054;2022-10-31T01:13:53;22.48;;;8.07;;
72924;SDS011;61070;50.794;7.054;2022-10-31T01:16:20;19.65;;;8.68;;
72924;SDS011;61070;50.794;7.054;2022-10-31T01:18:47;20.20;;;8.00;;
72924;SDS011;61070;50.794;7.054;2022-10-31T01:21:16;21.17;;;8.30;;
72924;SDS011;61070;50.794;7.054;2022-10-31T01:23:46;14.25;;;8.27;;
72924;SDS011;61070;50.794;7.054;2022-10-31T01:28:43;15.23;;;8.00;;
72924;SDS011;61070;50.794;7.054;2022-10-31T01:31:16;17.17;;;7.97;;
72924;SDS011;61070;50.794;7.054;2022-10-31T01:33:43;14.73;;;7.95;;
72924;SDS011;61070;50.794;7.054;2022-10-31T01:38:40;15.52;;;7.90;;
72924;SDS011;61070;50.794;7.054;2022-10-31T01:41:05;19.30;;;9.23;;
72924;SDS011;61070;50.794;7.054;2022-10-31T01:43:44;20.13;;;8.10;;
72924;SDS011;61070;50.794;7.054;2022-10-31T01:46:15;19.80;;;8.20;;
72924;SDS011;61070;50.794;7.054;2022-10-31T01:48:45;17.33;;;8.05;;
72924;SDS011;61070;50.794;7.054;2022-10-31T01:51:11;20.05;;;7.78;;
72924;SDS011;61070;50.794;7.054;2022-10-31T01:53:39;18.67;;;8.77;;
72924;SDS011;61070;50.794;7.054;2022-10-31T01:56:08;15.70;;;8.18;;
72924;SDS011;61070;50.794;7.054;2022-10-31T01:58:34;21.55;;;8.50;;
72924;SDS011;61070;50.794;7.054;2022-10-31T02:01:01;17.45;;;9.07;;
72924;SDS011;61070;50.794;7.054;2022-10-31T02:03:28;18.00;;;7.75;;
72924;SDS011;61070;50.794;7.054;2022-10-31T02:05:54;17.08;;;7.70;;
72924;SDS011;61070;50.794;7.054;2022-10-31T02:08:23;32.63;;;8.10;;
72924;SDS011;61070;50.794;7.054;2022-10-31T02:10:52;17.17;;;8.23;;
72924;SDS011;61070;50.794;7.054;2022-10-31T02:13:18;17.67;;;8.85;;
72924;SDS011;61070;50.794;7.054;2022-10-31T02:15:45;21.38;;;8.60;;
72924;SDS011;61070;50.794;7.054;2022-10-31T02:18:13;23.77;;;8.10;;
72924;SDS011;61070;50.794;7.054;2022-10-31T02:20:42;19.40;;;7.47;;
72924;SDS011;61070;50.794;7.054;2022-10-31T02:23:25;18.45;;;8.27;;
72924;SDS011;61070;50.794;7.054;2022-10-31T02:26:14;19.98;;;8.75;;
72924;SDS011;61070;50.794;7.054;2022-10-31T02:32:08;15.52;;;8.20;;
72924;SDS011;61070;50.794;7.054;2022-10-31T02:35:30;17.58;;;8.98;;
72924;SDS011;61070;50.794;7.054;2022-10-31T02:38:06;20.17;;;8.20;;
72924;SDS011;61070;50.794;7.054;2022-10-31T02:40:59;23.83;;;8.60;;
72924;SDS011;61070;50.794;7.054;2022-10-31T02:46:13;17.80;;;8.63;;
72924;SDS011;61070;50.794;7.054;2022-10-31T02:48:41;20.17;;;8.30;;
72924;SDS011;61070;50.794;7.054;2022-10-31T02:51:09;19.63;;;8.90;;
72924;SDS011;61070;50.794;7.054;2022-10-31T02:53:36;22.10;;;8.25;;
72924;SDS011;61070;50.794;7.054;2022-10-31T02:56:11;18.23;;;8.77;;
72924;SDS011;61070;50.794;7.054;2022-10-31T02:58:49;16.02;;;7.78;;
72924;SDS011;61070;50.794;7.054;2022-10-31T03:06:14;17.10;;;8.77;;
72924;SDS011;61070;50.794;7.054;2022-10-31T03:08:50;25.55;;;8.70;;
72924;SDS011;61070;50.794;7.054;2022-10-31T03:11:24;20.70;;;8.75;;
72924;SDS011;61070;50.794;7.054;2022-10-31T03:17:05;15.98;;;9.20;;
72924;SDS011;61070;50.794;7.054;2022-10-31T03:19:38;20.80;;;9.43;;
72924;SDS011;61070;50.794;7.054;2022-10-31T03:22:19;21.60;;;10.23;;
72924;SDS011;61070;50.794;7.054;2022-10-31T03:24:47;17.00;;;8.32;;
72924;SDS011;61070;50.794;7.054;2022-10-31T03:27:14;16.05;;;7.88;;
72924;SDS011;61070;50.794;7.054;2022-10-31T03:29:43;17.10;;;8.85;;
72924;SDS011;61070;50.794;7.054;2022-10-31T03:34:41;19.80;;;7.88;;
72924;SDS011;61070;50.794;7.054;2022-10-31T03:37:10;20.00;;;8.52;;
72924;SDS011;61070;50.794;7.054;2022-10-31T03:39:38;26.17;;;8.55;;
72924;SDS011;61070;50.794;7.054;2022-10-31T03:42:11;18.52;;;7.97;;
72924;SDS011;61070;50.794;7.054;2022-10-31T03:44:41;23.65;;;8.70;;
72924;SDS011;61070;50.794;7.054;2022-10-31T03:47:11;22.52;;;8.77;;
72924;SDS011;61070;50.794;7.054;2022-10-31T03:49:37;21.80;;;8.35;;
72924;SDS011;61070;50.794;7.054;2022-10-31T03:52:17;18.35;;;7.28;;
72924;SDS011;61070;50.794;7.054;2022-10-31T03:55:04;16.17;;;7.82;;
72924;SDS011;61070;50.794;7.054;2022-10-31T03:57:53;16.77;;;7.97;;
72924;SDS011;61070;50.794;7.054;2022-10-31T04:00:32;17.75;;;8.10;;
72924;SDS011;61070;50.794;7.054;2022-10-31T04:03:00;15.52;;;8.07;;
72924;SDS011;61070;50.794;7.054;2022-10-31T04:05:32;24.75;;;8.68;;
72924;SDS011;61070;50.794;7.054;2022-10-31T04:08:00;17.90;;;8.38;;
72924;SDS011;61070;50.794;7.054;2022-10-31T04:10:28;27.70;;;8.63;;
72924;SDS011;61070;50.794;7.054;2022-10-31T04:12:56;22.65;;;8.40;;
72924;SDS011;61070;50.794;7.054;2022-10-31T04:15:24;19.80;;;8.25;;
72924;SDS011;61070;50.794;7.054;2022-10-31T04:17:52;19.65;;;8.15;;
72924;SDS011;61070;50.794;7.054;2022-10-31T04:20:29;23.23;;;8.23;;
72924;SDS011;61070;50.794;7.054;2022-10-31T04:23:24;18.55;;;7.82;;
72924;SDS011;61070;50.794;7.054;2022-10-31T04:25:50;29.08;;;7.93;;
72924;SDS011;61070;50.794;7.054;2022-10-31T04:28:16;18.25;;;7.90;;
72924;SDS011;61070;50.794;7.054;2022-10-31T04:30:41;18.17;;;8.23;;
72924;SDS011;61070;50.794;7.054;2022-10-31T04:33:06;19.08;;;8.82;;
72924;SDS011;61070;50.794;7.054;2022-10-31T04:35:31;18.98;;;7.80;;
72924;SDS011;61070;50.794;7.054;2022-10-31T04:37:57;19.38;;;7.97;;
72924;SDS011;61070;50.794;7.054;2022-10-31T04:40:22;13.80;;;8.25;;
72924;SDS011;61070;50.794;7.054;2022-10-31T04:42:47;18.55;;;7.97;;
72924;SDS011;61070;50.794;7.054;2022-10-31T04:45:13;20.77;;;7.75;;
72924;SDS011;61070;50.794;7.054;2022-10-31T04:47:38;18.60;;;7.10;;
72924;SDS011;61070;50.794;7.054;2022-10-31T04:50:03;19.02;;;8.45;;
72924;SDS011;61070;50.794;7.054;2022-10-31T04:52:29;13.60;;;7.50;;
72924;SDS011;61070;50.794;7.054;2022-10-31T04:54:54;13.00;;;7.00;;
72924;SDS011;61070;50.794;7.054;2022-10-31T04:57:20;20.75;;;8.27;;
72924;SDS011;61070;50.794;7.054;2022-10-31T04:59:45;17.75;;;7.45;;
72924;SDS011;61070;50.794;7.054;2022-10-31T05:02:10;16.75;;;7.63;;
72924;SDS011;61070;50.794;7.054;2022-10-31T05:04:35;16.67;;;7.60;;
72924;SDS011;61070;50.794;7.054;2022-10-31T05:07:01;19.98;;;7.68;;
72924;SDS011;61070;50.794;7.054;2022-10-31T05:09:26;21.80;;;7.75;;
72924;SDS011;61070;50.794;7.054;2022-10-31T05:11:51;17.67;;;7.68;;
72924;SDS011;61070;50.794;7.054;2022-10-31T05:14:17;15.45;;;7.55;;
72924;SDS011;61070;50.794;7.054;2022-10-31T05:16:42;27.02;;;7.30;;
72924;SDS011;61070;50.794;7.054;2022-10-31T05:19:07;14.45;;;7.80;;
72924;SDS011;61070;50.794;7.054;2022-10-31T05:21:32;18.00;;;7.28;;
72924;SDS011;61070;50.794;7.054;2022-10-31T05:23:58;14.77;;;7.30;;
72924;SDS011;61070;50.794;7.054;2022-10-31T05:26:23;18.65;;;7.68;;
72924;SDS011;61070;50.794;7.054;2022-10-31T05:28:49;17.85;;;6.95;;
72924;SDS011;61070;50.794;7.054;2022-10-31T05:31:14;19.15;;;7.53;;
72924;SDS011;61070;50.794;7.054;2022-10-31T05:33:39;15.15;;;6.57;;
72924;SDS011;61070;50.794;7.054;2022-10-31T05:36:04;21.85;;;7.25;;
72924;SDS011;61070;50.794;7.054;2022-10-31T05:38:30;18.52;;;7.40;;
72924;SDS011;61070;50.794;7.054;2022-10-31T05:40:55;16.20;;;7.78;;
72924;SDS011;61070;50.794;7.054;2022-10-31T05:43:23;14.68;;;6.72;;
72924;SDS011;61070;50.794;7.054;2022-10-31T05:45:51;17.17;;;7.13;;
72924;SDS011;61070;50.794;7.054;2022-10-31T05:48:17;12.75;;;6.50;;
72924;SDS011;61070;50.794;7.054;2022-10-31T05:50:43;21.48;;;7.72;;
72924;SDS011;61070;50.794;7.054;2022-10-31T05:53:08;12.38;;;6.22;;
72924;SDS011;61070;50.794;7.054;2022-10-31T05:55:33;18.77;;;8.20;;
72924;SDS011;61070;50.794;7.054;2022-10-31T05:57:58;19.08;;;7.15;;
72924;SDS011;61070;50.794;7.054;2022-10-31T06:00:24;11.60;;;6.97;;
72924;SDS011;61070;50.794;7.054;2022-10-31T06:02:57;16.45;;;7.75;;
72924;SDS011;61070;50.794;7.054;2022-10-31T06:05:30;14.38;;;6.88;;
72924;SDS011;61070;50.794;7.054;2022-10-31T06:07:55;14.35;;;6.75;;
72924;SDS011;61070;50.794;7.054;2022-10-31T06:10:21;20.33;;;7.72;;
72924;SDS011;61070;50.794;7.054;2022-10-31T06:12:47;14.55;;;7.15;;
72924;SDS011;61070;50.794;7.054;2022-10-31T06:15:12;21.92;;;7.70;;
72924;SDS011;61070;50.794;7.054;2022-10-31T06:17:38;26.13;;;7.75;;
72924;SDS011;61070;50.794;7.054;2022-10-31T06:20:04;13.77;;;7.32;;
72924;SDS011;61070;50.794;7.054;2022-10-31T06:22:30;20.23;;;7.53;;
72924;SDS011;61070;50.794;7.054;2022-10-31T06:24:55;20.25;;;7.85;;
72924;SDS011;61070;50.794;7.054;2022-10-31T06:27:21;16.58;;;7.07;;
72924;SDS011;61070;50.794;7.054;2022-10-31T06:29:47;18.60;;;7.03;;
72924;SDS011;61070;50.794;7.054;2022-10-31T06:32:12;19.67;;;7.45;;
72924;SDS011;61070;50.794;7.054;2022-10-31T06:34:38;19.40;;;8.20;;
72924;SDS011;61070;50.794;7.054;2022-10-31T06:37:05;21.38;;;8.05;;
72924;SDS011;61070;50.794;7.054;2022-10-31T06:39:31;22.13;;;8.52;;
72924;SDS011;61070;50.794;7.054;2022-10-31T06:41:57;17.38;;;7.68;;
72924;SDS011;61070;50.794;7.054;2022-10-31T06:44:22;20.58;;;7.90;;
72924;SDS011;61070;50.794;7.054;2022-10-31T06:46:47;21.67;;;7.47;;
72924;SDS011;61070;50.794;7.054;2022-10-31T06:49:13;25.65;;;9.70;;
72924;SDS011;61070;50.794;7.054;2022-10-31T06:51:38;19.23;;;8.02;;
72924;SDS011;61070;50.794;7.054;2022-10-31T06:54:03;22.42;;;8.95;;
72924;SDS011;61070;50.794;7.054;2022-10-31T06:56:29;21.08;;;7.85;;
72924;SDS011;61070;50.794;7.054;2022-10-31T06:58:54;23.77;;;7.63;;
72924;SDS011;61070;50.794;7.054;2022-10-31T07:01:19;22.05;;;8.45;;
72924;SDS011;61070;50.794;7.054;2022-10-31T07:03:44;20.92;;;8.70;;
72924;SDS011;61070;50.794;7.054;2022-10-31T07:06:10;23.38;;;7.80;;
72924;SDS011;61070;50.794;7.054;2022-10-31T07:08:35;22.80;;;8.18;;
72924;SDS011;61070;50.794;7.054;2022-10-31T07:11:00;16.30;;;8.52;;
72924;SDS011;61070;50.794;7.054;2022-10-31T07:13:26;19.05;;;8.20;;
72924;SDS011;61070;50.794;7.054;2022-10-31T07:15:54;16.35;;;7.55;;
72924;SDS011;61070;50.794;7.054;2022-10-31T07:18:23;21.95;;;9.15;;
72924;SDS011;61070;50.794;7.054;2022-10-31T07:20:49;24.38;;;8.38;;
72924;SDS011;61070;50.794;7.054;2022-10-31T07:23:14;21.40;;;8.10;;
72924;SDS011;61070;50.794;7.054;2022-10-31T07:25:39;21.98;;;8.63;;
72924;SDS011;61070;50.794;7.054;2022-10-31T07:28:05;18.65;;;7.72;;
72924;SDS011;61070;50.794;7.054;2022-10-31T07:30:31;18.08;;;9.35;;
72924;SDS011;61070;50.794;7.054;2022-10-31T07:32:56;14.07;;;8.15;;
72924;SDS011;61070;50.794;7.054;2022-10-31T07:35:23;21.77;;;7.85;;
72924;SDS011;61070;50.794;7.054;2022-10-31T07:37:50;20.98;;;7.85;;
72924;SDS011;61070;50.794;7.054;2022-10-31T07:40:15;18.52;;;9.13;;
72924;SDS011;61070;50.794;7.054;2022-10-31T07:42:42;17.10;;;8.18;;
72924;SDS011;61070;50.794;7.054;2022-10-31T07:45:10;26.27;;;8.43;;
72924;SDS011;61070;50.794;7.054;2022-10-31T07:47:40;16.13;;;7.70;;
72924;SDS011;61070;50.794;7.054;2022-10-31T07:50:16;16.63;;;7.50;;
72924;SDS011;61070;50.794;7.054;2022-10-31T07:52:43;16.80;;;7.38;;
72924;SDS011;61070;50.794;7.054;2022-10-31T07:55:09;18.70;;;8.43;;
72924;SDS011;61070;50.794;7.054;2022-10-31T07:57:34;20.05;;;8.15;;
72924;SDS011;61070;50.794;7.054;2022-10-31T08:00:02;16.83;;;8.07;;
72924;SDS011;61070;50.794;7.054;2022-10-31T08:02:31;19.50;;;9.38;;
72924;SDS011;61070;50.794;7.054;2022-10-31T08:04:56;24.60;;;8.55;;
72924;SDS011;61070;50.794;7.054;2022-10-31T08:07:22;22.10;;;8.52;;
72924;SDS011;61070;50.794;7.054;2022-10-31T08:09:47;21.92;;;10.00;;
72924;SDS011;61070;50.794;7.054;2022-10-31T08:12:12;18.42;;;8.00;;
72924;SDS011;61070;50.794;7.054;2022-10-31T08:14:38;26.33;;;9.63;;
72924;SDS011;61070;50.794;7.054;2022-10-31T08:17:03;21.35;;;9.35;;
72924;SDS011;61070;50.794;7.054;2022-10-31T08:19:28;20.13;;;8.77;;
72924;SDS011;61070;50.794;7.054;2022-10-31T08:21:54;19.30;;;8.52;;
72924;SDS011;61070;50.794;7.054;2022-10-31T08:24:20;22.33;;;10.77;;
72924;SDS011;61070;50.794;7.054;2022-10-31T08:26:46;20.10;;;10.15;;
72924;SDS011;61070;50.794;7.054;2022-10-31T08:29:11;16.75;;;9.07;;
72924;SDS011;61070;50.794;7.054;2022-10-31T08:31:36;17.60;;;8.60;;
72924;SDS011;61070;50.794;7.054;2022-10-31T08:34:02;21.88;;;8.45;;
72924;SDS011;61070;50.794;7.054;2022-10-31T08:36:27;18.35;;;8.05;;
72924;SDS011;61070;50.794;7.054;2022-10-31T08:38:53;21.38;;;9.32;;
72924;SDS011;61070;50.794;7.054;2022-10-31T08:41:19;15.63;;;8.93;;
72924;SDS011;61070;50.794;7.054;2022-10-31T08:43:44;17.48;;;8.18;;
72924;SDS011;61070;50.794;7.054;2022-10-31T08:46:10;22.67;;;9.05;;
72924;SDS011;61070;50.794;7.054;2022-10-31T08:48:35;20.15;;;9.07;;
72924;SDS011;61070;50.794;7.054;2022-10-31T08:51:01;15.30;;;9.43;;
72924;SDS011;61070;50.794;7.054;2022-10-31T08:53:26;32.40;;;9.50;;
72924;SDS011;61070;50.794;7.054;2022-10-31T08:55:54;22.75;;;9.10;;
72924;SDS011;61070;50.794;7.054;2022-10-31T08:58:20;23.67;;;9.50;;
72924;SDS011;61070;50.794;7.054;2022-10-31T09:00:47;21.95;;;8.90;;
72924;SDS011;61070;50.794;7.054;2022-10-31T09:03:24;17.42;;;8.55;;
72924;SDS011;61070;50.794;7.054;2022-10-31T09:05:54;24.42;;;8.27;;
72924;SDS011;61070;50.794;7.054;2022-10-31T09:08:22;24.13;;;8.18;;
72924;SDS011;61070;50.794;7.054;2022-10-31T09:10:47;17.98;;;8.52;;
72924;SDS011;61070;50.794;7.054;2022-10-31T09:13:14;19.45;;;8.02;;
72924;SDS011;61070;50.794;7.054;2022-10-31T09:15:43;25.50;;;8.90;;
72924;SDS011;61070;50.794;7.054;2022-10-31T09:18:10;19.75;;;9.90;;
72924;SDS011;61070;50.794;7.054;2022-10-31T09:20:36;22.90;;;9.55;;
72924;SDS011;61070;50.794;7.054;2022-10-31T09:23:06;23.33;;;8.68;;
72924;SDS011;61070;50.794;7.054;2022-10-31T09:25:35;20.13;;;8.40;;
72924;SDS011;61070;50.794;7.054;2022-10-31T09:28:01;25.20;;;10.35;;
72924;SDS011;61070;50.794;7.054;2022-10-31T09:30:28;15.13;;;8.23;;
72924;SDS011;61070;50.794;7.054;2022-10-31T09:32:55;16.63;;;7.95;;
72924;SDS011;61070;50.794;7.054;2022-10-31T09:35:21;18.25;;;8.00;;
72924;SDS011;61070;50.794;7.054;2022-10-31T09:37:47;18.25;;;7.97;;
72924;SDS011;61070;50.794;7.054;2022-10-31T09:40:21;20.20;;;8.43;;
72924;SDS011;61070;50.794;7.054;2022-10-31T09:51:08;15.50;;;7.63;;
72924;SDS011;61070;50.794;7.054;2022-10-31T09:53:42;18.35;;;8.80;;
72924;SDS011;61070;50.794;7.054;2022-10-31T09:56:14;21.20;;;8.55;;
72924;SDS011;61070;50.794;7.054;2022-10-31T09:58:46;28.30;;;8.85;;
72924;SDS011;61070;50.794;7.054;2022-10-31T10:04:01;18.27;;;8.75;;
72924;SDS011;61070;50.794;7.054;2022-10-31T10:06:35;18.40;;;8.00;;
72924;SDS011;61070;50.794;7.054;2022-10-31T10:09:04;17.45;;;8.93;;
72924;SDS011;61070;50.794;7.054;2022-10-31T10:12:16;18.15;;;8.50;;
72924;SDS011;61070;50.794;7.054;2022-10-31T10:14:36;23.48;;;8.52;;
72924;SDS011;61070;50.794;7.054;2022-10-31T10:20:10;14.63;;;8.27;;
72924;SDS011;61070;50.794;7.054;2022-10-31T10:25:58;16.77;;;8.25;;
72924;SDS011;61070;50.794;7.054;2022-10-31T10:28:32;24.05;;;8.18;;
72924;SDS011;61070;50.794;7.054;2022-10-31T10:31:07;19.15;;;8.32;;
72924;SDS011;61070;50.794;7.054;2022-10-31T10:33:41;20.30;;;8.48;;
72924;SDS011;61070;50.794;7.054;2022-10-31T10:36:13;20.00;;;8.43;;
72924;SDS011;61070;50.794;7.054;2022-10-31T10:38:49;18.58;;;8.63;;
72924;SDS011;61070;50.794;7.054;2022-10-31T10:41:19;25.20;;;8.15;;
72924;SDS011;61070;50.794;7.054;2022-10-31T10:43:51;21.73;;;8.77;;
72924;SDS011;61070;50.794;7.054;2022-10-31T10:46:19;16.30;;;8.07;;
72924;SDS011;61070;50.794;7.054;2022-10-31T10:49:21;19.92;;;9.23;;
72924;SDS011;61070;50.794;7.054;2022-10-31T10:59:51;16.13;;;8.13;;
72924;SDS011;61070;50.794;7.054;2022-10-31T11:02:21;18.00;;;7.38;;
72924;SDS011;61070;50.794;7.054;2022-10-31T11:04:50;16.42;;;7.05;;
72924;SDS011;61070;50.794;7.054;2022-10-31T11:07:17;17.08;;;7.28;;
72924;SDS011;61070;50.794;7.054;2022-10-31T11:09:43;21.30;;;8.05;;
72924;SDS011;61070;50.794;7.054;2022-10-31T11:12:30;18.67;;;7.50;;
72924;SDS011;61070;50.794;7.054;2022-10-31T11:14:57;23.52;;;7.88;;
72924;SDS011;61070;50.794;7.054;2022-10-31T11:22:30;16.17;;;7.35;;
72924;SDS011;61070;50.794;7.054;2022-10-31T11:24:56;20.23;;;7.43;;
72924;SDS011;61070;50.794;7.054;2022-10-31T11:27:22;15.38;;;7.88;;
72924;SDS011;61070;50.794;7.054;2022-10-31T11:29:49;23.23;;;9.20;;
72924;SDS011;61070;50.794;7.054;2022-10-31T11:32:22;16.23;;;6.65;;
72924;SDS011;61070;50.794;7.054;2022-10-31T11:34:53;24.92;;;7.85;;
72924;SDS011;61070;50.794;7.054;2022-10-31T11:37:23;19.50;;;7.50;;
72924;SDS011;61070;50.794;7.054;2022-10-31T11:39:55;24.53;;;7.50;;
72924;SDS011;61070;50.794;7.054;2022-10-31T11:42:24;16.20;;;8.18;;
72924;SDS011;61070;50.794;7.054;2022-10-31T11:44:52;17.63;;;7.30;;
72924;SDS011;61070;50.794;7.054;2022-10-31T11:47:25;20.45;;;7.45;;
72924;SDS011;61070;50.794;7.054;2022-10-31T11:49:53;17.27;;;7.30;;
72924;SDS011;61070;50.794;7.054;2022-10-31T11:52:21;18.73;;;7.60;;
72924;SDS011;61070;50.794;7.054;2022-10-31T11:59:57;13.88;;;6.90;;
72924;SDS011;61070;50.794;7.054;2022-10-31T12:02:24;14.45;;;7.00;;
72924;SDS011;61070;50.794;7.054;2022-10-31T12:04:52;16.25;;;6.82;;
72924;SDS011;61070;50.794;7.054;2022-10-31T12:07:33;17.80;;;8.65;;
72924;SDS011;61070;50.794;7.054;2022-10-31T12:09:58;22.98;;;7.70;;
72924;SDS011;61070;50.794;7.054;2022-10-31T12:17:49;19.50;;;7.22;;
72924;SDS011;61070;50.794;7.054;2022-10-31T12:20:54;17.38;;;7.68;;
72924;SDS011;61070;50.794;7.054;2022-10-31T12:26:16;20.67;;;7.28;;
72924;SDS011;61070;50.794;7.054;2022-10-31T12:37:24;19.17;;;6.72;;
72924;SDS011;61070;50.794;7.054;2022-10-31T12:40:29;20.58;;;7.97;;
72924;SDS011;61070;50.794;7.054;2022-10-31T12:46:18;15.90;;;7.55;;
72924;SDS011;61070;50.794;7.054;2022-10-31T12:48:59;17.55;;;7.28;;
72924;SDS011;61070;50.794;7.054;2022-10-31T12:57:11;14.32;;;6.50;;
72924;SDS011;61070;50.794;7.054;2022-10-31T12:59:48;21.35;;;6.80;;
72924;SDS011;61070;50.794;7.054;2022-10-31T13:02:22;19.95;;;6.88;;
72924;SDS011;61070;50.794;7.054;2022-10-31T13:07:48;19.95;;;6.95;;
72924;SDS011;61070;50.794;7.054;2022-10-31T13:10:37;17.83;;;6.30;;
72924;SDS011;61070;50.794;7.054;2022-10-31T13:13:18;14.73;;;6.45;;
72924;SDS011;61070;50.794;7.054;2022-10-31T13:15:49;25.45;;;6.63;;
72924;SDS011;61070;50.794;7.054;2022-10-31T13:18:24;19.77;;;6.97;;
72924;SDS011;61070;50.794;7.054;2022-10-31T13:20:55;17.13;;;5.97;;
72924;SDS011;61070;50.794;7.054;2022-10-31T13:23:27;17.45;;;6.38;;
72924;SDS011;61070;50.794;7.054;2022-10-31T13:25:55;13.68;;;6.18;;
72924;SDS011;61070;50.794;7.054;2022-10-31T13:28:33;17.23;;;5.72;;
72924;SDS011;61070;50.794;7.054;2022-10-31T13:33:30;11.77;;;5.13;;
72924;SDS011;61070;50.794;7.054;2022-10-31T13:38:56;14.13;;;7.00;;
72924;SDS011;61070;50.794;7.054;2022-10-31T13:41:42;14.60;;;6.32;;
72924;SDS011;61070;50.794;7.054;2022-10-31T13:46:43;21.23;;;5.88;;
72924;SDS011;61070;50.794;7.054;2022-10-31T13:57:12;14.25;;;5.93;;
72924;SDS011;61070;50.794;7.054;2022-10-31T13:59:46;10.02;;;5.30;;
72924;SDS011;61070;50.794;7.054;2022-10-31T14:02:16;14.88;;;5.68;;
72924;SDS011;61070;50.794;7.054;2022-10-31T14:04:46;17.95;;;5.70;;
72924;SDS011;61070;50.794;7.054;2022-10-31T14:07:17;16.90;;;6.50;;
72924;SDS011;61070;50.794;7.054;2022-10-31T14:12:28;19.70;;;4.95;;
72924;SDS011;61070;50.794;7.054;2022-10-31T14:14:58;11.18;;;4.68;;
72924;SDS011;61070;50.794;7.054;2022-10-31T14:17:48;29.10;;;6.35;;
72924;SDS011;61070;50.794;7.054;2022-10-31T14:22:42;11.63;;;5.37;;
72924;SDS011;61070;50.794;7.054;2022-10-31T14:27:57;16.27;;;5.00;;
72924;SDS011;61070;50.794;7.054;2022-10-31T14:30:24;17.27;;;5.68;;
72924;SDS011;61070;50.794;7.054;2022-10-31T14:32:53;16.73;;;5.13;;
72924;SDS011;61070;50.794;7.054;2022-10-31T14:35:23;13.50;;;4.47;;
72924;SDS011;61070;50.794;7.054;2022-10-31T14:41:03;14.38;;;4.97;;
72924;SDS011;61070;50.794;7.054;2022-10-31T14:43:43;16.77;;;5.82;;
72924;SDS011;61070;50.794;7.054;2022-10-31T14:46:24;18.58;;;4.88;;
72924;SDS011;61070;50.794;7.054;2022-10-31T14:49:14;13.10;;;4.95;;
72924;SDS011;61070;50.794;7.054;2022-10-31T14:51:48;13.68;;;4.82;;
72924;SDS011;61070;50.794;7.054;2022-10-31T14:54:30;14.13;;;4.97;;
72924;SDS011;61070;50.794;7.054;2022-10-31T14:57:00;17.80;;;5.03;;
72924;SDS011;61070;50.794;7.054;2022-10-31T14:59:31;14.57;;;4.90;;
72924;SDS011;61070;50.794;7.054;2022-10-31T15:02:01;16.58;;;5.82;;
72924;SDS011;61070;50.794;7.054;2022-10-31T15:04:45;15.70;;;5.05;;
72924;SDS011;61070;50.794;7.054;2022-10-31T15:07:20;14.10;;;5.25;;
72924;SDS011;61070;50.794;7.054;2022-10-31T15:10:00;22.05;;;5.68;;
72924;SDS011;61070;50.794;7.054;2022-10-31T15:12:30;14.60;;;5.00;;
72924;SDS011;61070;50.794;7.054;2022-10-31T15:14:57;14.48;;;5.35;;
72924;SDS011;61070;50.794;7.054;2022-10-31T15:17:26;24.30;;;5.35;;
72924;SDS011;61070;50.794;7.054;2022-10-31T15:19:51;15.10;;;5.00;;
72924;SDS011;61070;50.794;7.054;2022-10-31T15:22:20;20.52;;;5.30;;
72924;SDS011;61070;50.794;7.054;2022-10-31T15:24:48;14.43;;;4.63;;
72924;SDS011;61070;50.794;7.054;2022-10-31T15:27:21;15.02;;;5.05;;
72924;SDS011;61070;50.794;7.054;2022-10-31T15:29:48;12.32;;;4.47;;
72924;SDS011;61070;50.794;7.054;2022-10-31T15:32:22;17.70;;;4.93;;
72924;SDS011;61070;50.794;7.054;2022-10-31T15:34:49;11.10;;;4.22;;
72924;SDS011;61070;50.794;7.054;2022-10-31T15:37:17;16.20;;;5.43;;
72924;SDS011;61070;50.794;7.054;2022-10-31T15:39:45;16.65;;;5.55;;
72924;SDS011;61070;50.794;7.054;2022-10-31T15:44:45;17.05;;;4.93;;
72924;SDS011;61070;50.794;7.054;2022-10-31T15:47:21;16.17;;;4.80;;
72924;SDS011;61070;50.794;7.054;2022-10-31T15:49:53;15.82;;;5.28;;
72924;SDS011;61070;50.794;7.054;2022-10-31T15:55:14;13.98;;;4.82;;
72924;SDS011;61070;50.794;7.054;2022-10-31T15:57:43;20.05;;;4.90;;
72924;SDS011;61070;50.794;7.054;2022-10-31T16:00:29;12.98;;;4.80;;
72924;SDS011;61070;50.794;7.054;2022-10-31T16:03:03;12.95;;;4.60;;
72924;SDS011;61070;50.794;7.054;2022-10-31T16:05:38;17.35;;;5.50;;
72924;SDS011;61070;50.794;7.054;2022-10-31T16:13:28;12.27;;;5.80;;
72924;SDS011;61070;50.794;7.054;2022-10-31T16:15:59;16.38;;;5.60;;
72924;SDS011;61070;50.794;7.054;2022-10-31T16:18:26;15.48;;;6.07;;
72924;SDS011;61070;50.794;7.054;2022-10-31T16:20:54;13.93;;;5.65;;
72924;SDS011;61070;50.794;7.054;2022-10-31T16:23:21;12.77;;;5.25;;
72924;SDS011;61070;50.794;7.054;2022-10-31T16:25:49;17.92;;;5.25;;
72924;SDS011;61070;50.794;7.054;2022-10-31T16:28:17;17.75;;;6.13;;
72924;SDS011;61070;50.794;7.054;2022-10-31T16:30:49;13.43;;;5.28;;
72924;SDS011;61070;50.794;7.054;2022-10-31T16:39:02;18.55;;;5.70;;
72924;SDS011;61070;50.794;7.054;2022-10-31T16:41:28;19.13;;;5.72;;
72924;SDS011;61070;50.794;7.054;2022-10-31T16:43:53;15.48;;;5.43;;
72924;SDS011;61070;50.794;7.054;2022-10-31T16:46:21;22.73;;;5.80;;
72924;SDS011;61070;50.794;7.054;2022-10-31T16:48:49;15.52;;;5.80;;
72924;SDS011;61070;50.794;7.054;2022-10-31T16:51:14;19.55;;;6.10;;
72924;SDS011;61070;50.794;7.054;2022-10-31T16:53:39;12.43;;;4.70;;
72924;SDS011;61070;50.794;7.054;2022-10-31T16:56:05;15.88;;;6.05;;